createdAt,value
2023-04-12T00:01:01.931Z,9.65
2023-04-12T00:03:29.248Z,9.43
2023-04-12T00:05:56.177Z,10.35
2023-04-12T00:08:33.067Z,7.57
2023-04-12T00:11:00.803Z,8.25
2023-04-12T00:13:27.940Z,7.15
2023-04-12T00:15:54.805Z,6.70
2023-04-12T00:18:25.237Z,7.38
2023-04-12T00:20:53.005Z,7.38
2023-04-12T00:23:20.022Z,5.95
2023-04-12T00:25:47.088Z,6.18
2023-04-12T00:28:15.842Z,6.37
2023-04-12T00:30:42.594Z,5.60
2023-04-12T00:33:09.243Z,5.70
2023-04-12T00:35:36.020Z,6.40
2023-04-12T00:38:10.264Z,6.22
2023-04-12T00:40:41.473Z,6.33
2023-04-12T00:43:08.922Z,7.20
2023-04-12T00:45:37.349Z,6.47
2023-04-12T00:48:06.256Z,7.28
2023-04-12T00:50:32.940Z,5.55
2023-04-12T00:52:59.798Z,7.77
2023-04-12T00:55:26.585Z,6.93
2023-04-12T00:57:54.080Z,6.57
2023-04-12T01:00:20.877Z,6.25
2023-04-12T01:02:50.315Z,6.53
2023-04-12T01:05:22.628Z,7.93
2023-04-12T01:08:26.988Z,6.95
2023-04-12T01:11:05.837Z,7.05
2023-04-12T01:13:41.803Z,8.13
2023-04-12T01:16:35.754Z,7.93
2023-04-12T01:19:07.828Z,6.57
2023-04-12T01:21:57.118Z,6.72
2023-04-12T01:24:38.755Z,6.80
2023-04-12T01:27:13.747Z,6.43
2023-04-12T01:29:41.378Z,5.88
2023-04-12T01:32:10.986Z,7.40
2023-04-12T01:34:40.329Z,10.30
2023-04-12T01:37:07.774Z,5.57
2023-04-12T01:39:34.765Z,8.57
2023-04-12T01:42:01.476Z,7.38
2023-04-12T01:44:28.219Z,6.30
2023-04-12T01:46:55.202Z,7.38
2023-04-12T01:49:28.453Z,7.53
2023-04-12T01:52:12.197Z,7.15
2023-04-12T01:54:42.618Z,7.22
2023-04-12T01:57:10.985Z,8.07
2023-04-12T01:59:43.379Z,7.15
2023-04-12T02:02:12.056Z,7.10
2023-04-12T02:04:39.754Z,7.15
2023-04-12T02:07:06.515Z,7.07
2023-04-12T02:09:39.715Z,6.70
2023-04-12T02:12:07.477Z,8.38
2023-04-12T02:14:34.218Z,7.40
2023-04-12T02:17:02.520Z,7.90
2023-04-12T02:19:29.356Z,8.32
2023-04-12T02:21:56.090Z,7.13
2023-04-12T02:24:22.963Z,6.57
2023-04-12T02:26:52.286Z,6.38
2023-04-12T02:29:18.976Z,6.32
2023-04-12T02:31:46.426Z,6.13
2023-04-12T02:34:13.420Z,6.13
2023-04-12T02:36:40.437Z,6.65
2023-04-12T02:39:07.654Z,7.57
2023-04-12T02:41:34.735Z,7.88
2023-04-12T02:44:01.613Z,6.78
2023-04-12T02:46:28.690Z,6.57
2023-04-12T02:48:55.655Z,6.47
2023-04-12T02:51:22.303Z,7.38
2023-04-12T02:53:48.940Z,6.80
2023-04-12T02:56:19.249Z,8.05
2023-04-12T02:58:46.288Z,7.53
2023-04-12T03:01:14.475Z,7.45
2023-04-12T03:03:41.257Z,7.05
2023-04-12T03:06:09.560Z,7.68
2023-04-12T03:08:36.226Z,7.05
2023-04-12T03:11:02.933Z,8.47
2023-04-12T03:13:29.630Z,7.93
2023-04-12T03:15:59.607Z,8.27
2023-04-12T03:18:26.602Z,6.57
2023-04-12T03:20:53.326Z,6.97
2023-04-12T03:23:20.553Z,7.57
2023-04-12T03:25:47.378Z,7.43
2023-04-12T03:28:14.076Z,7.65
2023-04-12T03:30:40.895Z,7.68
2023-04-12T03:33:07.952Z,7.30
2023-04-12T03:35:34.710Z,7.10
2023-04-12T03:38:01.394Z,7.03
2023-04-12T03:40:28.057Z,7.57
2023-04-12T03:42:54.785Z,8.25
2023-04-12T03:45:21.483Z,11.27
2023-04-12T03:47:48.297Z,7.13
2023-04-12T03:50:15.062Z,8.10
2023-04-12T03:52:41.721Z,6.68
2023-04-12T03:55:08.847Z,6.97
2023-04-12T03:57:35.881Z,7.75
2023-04-12T04:00:02.754Z,7.67
2023-04-12T04:02:30.007Z,7.78
2023-04-12T04:04:56.941Z,5.78
2023-04-12T04:07:23.753Z,47.92
2023-04-12T04:09:50.886Z,334.73
2023-04-12T04:12:17.481Z,159.63
2023-04-12T04:14:44.432Z,169.93
2023-04-12T04:17:11.252Z,182.23
2023-04-12T04:19:38.606Z,20.35
2023-04-12T04:22:05.351Z,7.22
2023-04-12T04:24:32.035Z,7.33
2023-04-12T04:26:58.777Z,8.77
2023-04-12T04:29:26.164Z,10.88
2023-04-12T04:31:53.794Z,13.45
2023-04-12T04:34:22.241Z,7.90
2023-04-12T04:36:49.102Z,7.97
2023-04-12T04:39:15.800Z,6.32
2023-04-12T04:41:42.533Z,10.20
2023-04-12T04:44:09.443Z,7.47
2023-04-12T04:46:37.924Z,7.28
2023-04-12T04:49:05.397Z,6.90
2023-04-12T04:51:32.476Z,6.82
2023-04-12T04:53:59.422Z,6.55
2023-04-12T04:56:26.237Z,5.72
2023-04-12T04:58:54.121Z,5.70
2023-04-12T05:01:26.010Z,6.60
2023-04-12T05:03:52.787Z,5.00
2023-04-12T05:06:19.528Z,5.18
2023-04-12T05:08:46.183Z,5.15
2023-04-12T05:11:12.851Z,4.95
2023-04-12T05:13:39.476Z,6.20
2023-04-12T05:16:08.005Z,4.88
2023-04-12T05:18:35.115Z,5.95
2023-04-12T05:21:03.913Z,5.50
2023-04-12T05:23:32.881Z,5.20
2023-04-12T05:25:59.574Z,5.20
2023-04-12T05:28:26.317Z,4.63
2023-04-12T05:30:52.996Z,5.68
2023-04-12T05:33:19.693Z,5.88
2023-04-12T05:35:46.613Z,7.07
2023-04-12T05:38:13.279Z,4.73
2023-04-12T05:40:40.036Z,6.55
2023-04-12T05:43:06.679Z,6.40
2023-04-12T05:45:33.341Z,5.32
2023-04-12T05:48:00.087Z,5.35
2023-04-12T05:50:26.929Z,5.53
2023-04-12T05:52:55.655Z,5.85
2023-04-12T05:55:22.373Z,6.43
2023-04-12T05:57:48.960Z,5.70
2023-04-12T06:00:19.064Z,6.25
2023-04-12T06:02:47.635Z,5.77
2023-04-12T06:05:17.163Z,6.60
2023-04-12T06:07:48.243Z,5.85
2023-04-12T06:10:19.230Z,6.40
2023-04-12T06:12:46.050Z,6.85
2023-04-12T06:15:12.875Z,6.37
2023-04-12T06:17:39.649Z,6.53
2023-04-12T06:20:10.140Z,6.38
2023-04-12T06:22:37.475Z,6.38
2023-04-12T06:25:05.297Z,6.10
2023-04-12T06:27:32.129Z,7.30
2023-04-12T06:29:58.883Z,7.55
2023-04-12T06:32:25.925Z,5.72
2023-04-12T06:34:54.558Z,6.72
2023-04-12T06:37:21.793Z,6.95
2023-04-12T06:39:48.442Z,5.90
2023-04-12T06:42:15.726Z,5.57
2023-04-12T06:44:42.479Z,5.70
2023-04-12T06:47:09.493Z,5.30
2023-04-12T06:49:36.480Z,5.85
2023-04-12T06:52:03.153Z,5.40
2023-04-12T06:54:29.906Z,5.93
2023-04-12T06:56:57.434Z,6.57
2023-04-12T06:59:24.265Z,5.07
2023-04-12T07:01:51.191Z,6.43
2023-04-12T07:04:18.085Z,6.27
2023-04-12T07:06:44.824Z,6.60
2023-04-12T07:09:11.481Z,6.60
2023-04-12T07:11:38.390Z,5.70
2023-04-12T07:14:05.047Z,6.93
2023-04-12T07:16:32.676Z,7.27
2023-04-12T07:19:00.578Z,6.20
2023-04-12T07:21:27.720Z,6.30
2023-04-12T07:23:55.930Z,7.65
2023-04-12T07:26:23.535Z,6.68
2023-04-12T07:28:50.714Z,8.13
2023-04-12T07:31:17.642Z,8.27
2023-04-12T07:33:44.734Z,8.07
2023-04-12T07:36:12.024Z,8.43
2023-04-12T07:38:38.909Z,7.68
2023-04-12T07:41:06.053Z,6.37
2023-04-12T07:43:32.795Z,6.95
2023-04-12T07:46:00.078Z,8.02
2023-04-12T07:48:26.757Z,7.85
2023-04-12T07:50:53.477Z,7.03
2023-04-12T07:53:21.317Z,7.87
2023-04-12T07:55:48.487Z,8.70
2023-04-12T07:58:17.019Z,7.82
2023-04-12T08:00:45.159Z,8.02
2023-04-12T08:03:13.603Z,7.78
2023-04-12T08:05:40.924Z,7.30
2023-04-12T08:08:09.945Z,7.75
2023-04-12T08:10:37.885Z,6.97
2023-04-12T08:13:06.132Z,6.18
2023-04-12T08:15:33.442Z,6.75
2023-04-12T08:18:02.506Z,6.27
2023-04-12T08:20:29.626Z,6.97
2023-04-12T08:22:56.495Z,8.20
2023-04-12T08:25:23.414Z,6.43
2023-04-12T08:27:51.376Z,7.20
2023-04-12T08:30:18.713Z,6.80
2023-04-12T08:32:45.981Z,7.18
2023-04-12T08:35:15.381Z,5.97
2023-04-12T08:37:42.282Z,6.20
2023-04-12T08:40:09.567Z,6.82
2023-04-12T08:42:37.788Z,7.33
2023-04-12T08:45:09.591Z,5.65
2023-04-12T08:47:39.257Z,5.88
2023-04-12T08:50:09.727Z,6.78
2023-04-12T08:52:38.189Z,6.45
2023-04-12T08:55:09.433Z,7.37
2023-04-12T08:57:37.031Z,5.45
2023-04-12T09:00:07.298Z,7.10
2023-04-12T09:02:36.424Z,6.13
2023-04-12T09:05:03.481Z,6.90
2023-04-12T09:07:31.182Z,7.67
2023-04-12T09:09:58.819Z,5.90
2023-04-12T09:12:25.926Z,6.18
2023-04-12T09:15:14.551Z,5.50
2023-04-12T09:17:42.710Z,5.82
2023-04-12T09:20:12.601Z,7.00
2023-04-12T09:22:44.267Z,6.85
2023-04-12T09:25:11.658Z,6.05
2023-04-12T09:27:52.365Z,4.72
2023-04-12T09:30:20.295Z,6.13
2023-04-12T09:32:50.917Z,4.80
2023-04-12T09:35:17.969Z,4.25
2023-04-12T09:37:44.762Z,5.20
2023-04-12T09:40:11.758Z,5.57
2023-04-12T09:42:53.391Z,5.13
2023-04-12T09:45:20.831Z,4.67
2023-04-12T09:47:47.754Z,4.65
2023-04-12T09:50:26.469Z,5.13
2023-04-12T09:52:54.033Z,4.45
2023-04-12T09:55:26.114Z,5.15
2023-04-12T09:57:54.088Z,6.13
2023-04-12T10:00:23.489Z,4.20
2023-04-12T10:02:56.418Z,4.20
2023-04-12T10:05:28.348Z,3.80
2023-04-12T10:07:56.623Z,6.18
2023-04-12T10:10:23.797Z,4.00
2023-04-12T10:12:50.855Z,5.28
2023-04-12T10:15:18.432Z,3.88
2023-04-12T10:17:53.445Z,3.90
2023-04-12T10:20:21.844Z,4.18
2023-04-12T10:22:53.162Z,3.87
2023-04-12T10:25:25.876Z,4.45
2023-04-12T10:27:53.244Z,4.78
2023-04-12T10:30:28.744Z,3.55
2023-04-12T10:33:05.010Z,3.90
2023-04-12T10:36:04.122Z,3.20
2023-04-12T10:38:35.880Z,4.22
2023-04-12T10:41:14.927Z,3.40
2023-04-12T10:43:46.336Z,4.10
2023-04-12T10:46:45.032Z,4.07
2023-04-12T10:49:16.491Z,3.93
2023-04-12T10:52:09.133Z,3.15
2023-04-12T10:54:36.619Z,5.38
2023-04-12T10:57:07.192Z,4.20
2023-04-12T10:59:59.288Z,3.70
2023-04-12T11:02:26.484Z,5.30
2023-04-12T11:05:09.381Z,4.90
2023-04-12T11:07:44.175Z,4.18
2023-04-12T11:10:15.794Z,4.13
2023-04-12T11:12:49.342Z,4.20
2023-04-12T11:15:16.769Z,2.80
2023-04-12T11:17:54.189Z,4.15
2023-04-12T11:20:21.372Z,4.82
2023-04-12T11:22:48.464Z,2.80
2023-04-12T11:25:17.869Z,4.00
2023-04-12T11:27:51.722Z,4.77
2023-04-12T11:30:19.762Z,3.53
2023-04-12T11:32:47.277Z,8.20
2023-04-12T11:35:20.199Z,4.65
2023-04-12T11:37:47.077Z,2.85
2023-04-12T11:40:14.582Z,3.57
2023-04-12T11:42:41.610Z,3.70
2023-04-12T11:45:15.930Z,6.55
2023-04-12T11:47:46.436Z,3.78
2023-04-12T11:50:13.472Z,4.97
2023-04-12T11:52:41.303Z,2.50
2023-04-12T11:55:10.922Z,3.20
2023-04-12T11:57:38.621Z,2.88
2023-04-12T12:00:06.924Z,3.10
2023-04-12T12:02:41.236Z,3.53
2023-04-12T12:05:13.294Z,4.27
2023-04-12T12:07:40.409Z,2.58
2023-04-12T12:10:08.299Z,2.90
2023-04-12T12:12:35.233Z,3.53
2023-04-12T12:15:02.347Z,2.55
2023-04-12T12:17:29.123Z,8.50
2023-04-12T12:19:59.377Z,3.65
2023-04-12T12:22:26.258Z,4.25
2023-04-12T12:24:57.879Z,3.67
2023-04-12T12:27:33.420Z,2.88
2023-04-12T12:30:02.365Z,8.83
2023-04-12T12:32:37.127Z,2.55
2023-04-12T12:35:09.600Z,2.72
2023-04-12T12:37:36.676Z,2.40
2023-04-12T12:40:16.502Z,3.20
2023-04-12T12:42:57.274Z,2.43
2023-04-12T12:45:26.324Z,2.88
2023-04-12T12:47:55.528Z,2.40
2023-04-12T12:50:25.146Z,2.78
2023-04-12T12:52:52.801Z,2.20
2023-04-12T12:55:21.445Z,2.47
2023-04-12T12:58:02.220Z,2.72
2023-04-12T13:00:33.396Z,2.50
2023-04-12T13:03:00.352Z,2.05
2023-04-12T13:05:27.307Z,2.83
2023-04-12T13:07:53.988Z,2.30
2023-04-12T13:10:20.969Z,2.47
2023-04-12T13:12:47.649Z,4.20
2023-04-12T13:17:44.102Z,3.42
2023-04-12T13:20:10.997Z,4.77
2023-04-12T13:22:37.637Z,3.55
2023-04-12T13:25:04.478Z,5.65
2023-04-12T13:27:31.089Z,5.15
2023-04-12T13:29:57.806Z,3.97
2023-04-12T13:32:24.455Z,3.03
2023-04-12T13:34:51.488Z,3.72
2023-04-12T13:37:18.246Z,3.22
2023-04-12T13:39:44.974Z,3.30
2023-04-12T13:42:11.718Z,3.78
2023-04-12T13:44:38.418Z,2.83
2023-04-12T13:47:05.154Z,2.70
2023-04-12T13:49:31.834Z,5.63
2023-04-12T13:51:58.514Z,2.67
2023-04-12T13:54:25.408Z,4.22
2023-04-12T13:56:52.122Z,4.60
2023-04-12T13:59:18.886Z,5.95
2023-04-12T14:01:45.830Z,3.15
2023-04-12T14:04:12.620Z,4.55
2023-04-12T14:06:39.352Z,5.55
2023-04-12T14:09:06.049Z,3.23
2023-04-12T14:11:46.195Z,3.10
2023-04-12T14:14:14.852Z,3.45
2023-04-12T14:16:44.736Z,3.05
2023-04-12T14:19:11.496Z,3.05
2023-04-12T14:21:38.279Z,3.30
2023-04-12T14:24:05.134Z,3.80
2023-04-12T14:26:32.506Z,2.92
2023-04-12T14:28:59.645Z,3.47
2023-04-12T14:31:26.557Z,3.40
2023-04-12T14:33:53.712Z,3.70
2023-04-12T14:36:20.693Z,3.00
2023-04-12T14:38:47.364Z,3.10
2023-04-12T14:41:14.066Z,2.78
2023-04-12T14:43:41.001Z,2.88
2023-04-12T14:46:07.843Z,3.23
2023-04-12T14:48:34.487Z,2.50
2023-04-12T14:51:01.226Z,3.72
2023-04-12T14:53:28.126Z,2.90
2023-04-12T14:55:54.927Z,2.92
2023-04-12T14:58:21.751Z,2.43
2023-04-12T15:00:49.610Z,4.13
2023-04-12T15:03:17.077Z,3.55
2023-04-12T15:05:43.958Z,5.15
2023-04-12T15:08:10.660Z,2.60
2023-04-12T15:10:37.469Z,3.07
2023-04-12T15:13:04.198Z,2.72
2023-04-12T15:15:31.020Z,2.92
2023-04-12T15:17:57.773Z,2.05
2023-04-12T15:20:24.540Z,2.97
2023-04-12T15:22:51.310Z,2.10
2023-04-12T15:25:18.042Z,4.00
2023-04-12T15:27:44.712Z,2.78
2023-04-12T15:30:14.386Z,3.00
2023-04-12T15:32:42.686Z,3.75
2023-04-12T15:35:25.386Z,6.60
2023-04-12T15:37:55.065Z,8.15
2023-04-12T15:40:22.862Z,3.72
2023-04-12T15:42:49.742Z,30.30
2023-04-12T15:45:17.033Z,3.00
2023-04-12T15:47:45.941Z,4.60
2023-04-12T15:50:13.193Z,2.50
2023-04-12T15:52:42.977Z,3.38
2023-04-12T15:55:11.887Z,3.45
2023-04-12T15:57:38.673Z,2.75
2023-04-12T16:00:13.875Z,1.77
2023-04-12T16:02:40.762Z,2.25
2023-04-12T16:05:07.937Z,4.70
2023-04-12T16:07:34.806Z,5.13
2023-04-12T16:10:03.314Z,1.80
2023-04-12T16:12:30.514Z,1.93
2023-04-12T16:14:58.034Z,2.00
2023-04-12T16:17:24.843Z,1.95
2023-04-12T16:19:51.520Z,2.05
2023-04-12T16:22:18.202Z,14.82
2023-04-12T16:24:44.976Z,4.53
2023-04-12T16:27:12.487Z,19.50
2023-04-12T16:29:40.290Z,12.02
2023-04-12T16:32:08.178Z,31.88
2023-04-12T16:34:34.887Z,29.80
2023-04-12T16:37:01.606Z,31.60
2023-04-12T16:39:29.215Z,7.30
2023-04-12T16:41:56.690Z,48.05
2023-04-12T16:44:23.494Z,6.72
2023-04-12T16:46:50.180Z,20.67
2023-04-12T16:49:19.657Z,10.93
2023-04-12T16:51:46.819Z,4.60
2023-04-12T16:54:13.498Z,5.80
2023-04-12T16:56:40.109Z,2.20
2023-04-12T16:59:07.817Z,2.50
2023-04-12T17:01:34.631Z,2.30
2023-04-12T17:04:01.729Z,13.88
2023-04-12T17:06:30.304Z,4.22
2023-04-12T17:08:57.286Z,2.35
2023-04-12T17:11:24.275Z,1.90
2023-04-12T17:13:52.572Z,2.93
2023-04-12T17:16:19.349Z,3.30
2023-04-12T17:18:46.065Z,2.92
2023-04-12T17:21:15.263Z,3.03
2023-04-12T17:23:41.974Z,3.25
2023-04-12T17:26:08.849Z,4.13
2023-04-12T17:28:36.090Z,2.30
2023-04-12T17:31:02.814Z,3.40
2023-04-12T17:33:29.496Z,2.40
2023-04-12T17:35:56.214Z,4.13
2023-04-12T17:38:23.041Z,5.60
2023-04-12T17:40:49.773Z,4.57
2023-04-12T17:43:16.479Z,2.88
2023-04-12T17:45:43.181Z,2.67
2023-04-12T17:48:14.873Z,2.83
2023-04-12T17:50:42.046Z,3.50
2023-04-12T17:53:08.683Z,4.60
2023-04-12T17:55:36.425Z,4.97
2023-04-12T17:58:03.442Z,3.63
2023-04-12T18:00:30.555Z,3.38
2023-04-12T18:02:57.407Z,3.30
2023-04-12T18:05:24.232Z,3.45
2023-04-12T18:07:50.859Z,4.97
2023-04-12T18:10:21.459Z,3.70
2023-04-12T18:12:48.507Z,3.00
2023-04-12T18:15:15.171Z,5.30
2023-04-12T18:17:42.042Z,3.65
2023-04-12T18:20:10.696Z,2.53
2023-04-12T18:22:40.173Z,3.63
2023-04-12T18:25:08.116Z,5.63
2023-04-12T18:27:34.904Z,4.53
2023-04-12T18:30:03.141Z,7.03
2023-04-12T18:32:30.026Z,7.03
2023-04-12T18:34:56.871Z,8.85
2023-04-12T18:37:23.709Z,2.30
2023-04-12T18:39:53.090Z,2.20
2023-04-12T18:42:20.217Z,3.22
2023-04-12T18:44:46.973Z,2.58
2023-04-12T18:47:13.614Z,2.38
2023-04-12T18:49:40.436Z,2.85
2023-04-12T18:52:07.201Z,2.83
2023-04-12T18:54:34.066Z,2.72
2023-04-12T18:57:03.301Z,3.10
2023-04-12T18:59:30.711Z,2.75
2023-04-12T19:01:57.559Z,2.20
2023-04-12T19:04:24.376Z,2.80
2023-04-12T19:06:51.262Z,2.40
2023-04-12T19:09:18.320Z,4.38
2023-04-12T19:11:45.710Z,3.88
2023-04-12T19:14:13.051Z,2.63
2023-04-12T19:16:39.863Z,2.90
2023-04-12T19:19:07.108Z,2.80
2023-04-12T19:21:33.995Z,2.92
2023-04-12T19:24:00.940Z,2.20
2023-04-12T19:26:28.629Z,4.00
2023-04-12T19:28:58.227Z,2.87
2023-04-12T19:31:25.270Z,2.42
2023-04-12T19:33:52.012Z,2.28
2023-04-12T19:36:19.227Z,5.57
2023-04-12T19:38:47.893Z,4.35
2023-04-12T19:41:16.196Z,2.80
2023-04-12T19:43:43.021Z,2.40
2023-04-12T19:46:09.816Z,1.90
2023-04-12T19:48:36.738Z,3.85
2023-04-12T19:51:04.303Z,5.13
2023-04-12T19:53:33.283Z,4.17
2023-04-12T19:56:00.805Z,3.63
2023-04-12T19:58:27.549Z,4.55
2023-04-12T20:00:54.952Z,4.82
2023-04-12T20:03:22.616Z,4.68
2023-04-12T20:05:49.640Z,4.70
2023-04-12T20:08:16.932Z,7.85
2023-04-12T20:10:43.789Z,6.47
2023-04-12T20:13:15.060Z,3.45
2023-04-12T20:15:44.944Z,3.97
2023-04-12T20:18:13.500Z,3.97
2023-04-12T20:20:44.104Z,5.97
2023-04-12T20:23:12.235Z,4.82
2023-04-12T20:25:41.565Z,2.53
2023-04-12T20:28:09.249Z,6.70
2023-04-12T20:30:39.288Z,8.87
2023-04-12T20:33:06.968Z,7.35
2023-04-12T20:35:33.820Z,3.10
2023-04-12T20:38:00.612Z,3.00
2023-04-12T20:40:29.628Z,3.45
2023-04-12T20:42:56.874Z,6.80
2023-04-12T20:45:23.783Z,27.42
2023-04-12T20:47:51.116Z,30.95
2023-04-12T20:50:18.725Z,14.82
2023-04-12T20:52:45.505Z,16.15
2023-04-12T20:55:14.017Z,10.40
2023-04-12T20:57:40.946Z,15.00
2023-04-12T21:00:14.461Z,16.13
2023-04-12T21:02:41.274Z,12.82
2023-04-12T21:05:08.121Z,2.83
2023-04-12T21:07:34.864Z,3.60
2023-04-12T21:10:02.265Z,2.28
2023-04-12T21:12:32.147Z,1.92
2023-04-12T21:15:00.804Z,1.80
2023-04-12T21:17:29.920Z,1.95
2023-04-12T21:19:58.250Z,1.90
2023-04-12T21:22:25.015Z,1.70
2023-04-12T21:24:51.869Z,1.80
2023-04-12T21:27:19.497Z,1.88
2023-04-12T21:29:47.218Z,1.60
2023-04-12T21:32:14.399Z,1.73
2023-04-12T21:34:41.061Z,4.40
2023-04-12T21:37:07.781Z,3.70
2023-04-12T21:39:35.111Z,2.50
2023-04-12T21:42:02.011Z,2.00
2023-04-12T21:44:28.977Z,1.60
2023-04-12T21:46:55.700Z,1.80
2023-04-12T21:49:22.327Z,2.03
2023-04-12T21:51:49.199Z,2.08
2023-04-12T21:54:16.312Z,1.88
2023-04-12T21:56:43.232Z,2.30
2023-04-12T21:59:09.936Z,1.52
2023-04-12T22:01:37.396Z,2.45
2023-04-12T22:04:04.513Z,1.75
2023-04-12T22:06:31.360Z,2.10
2023-04-12T22:09:01.911Z,1.50
2023-04-12T22:11:30.416Z,1.50
2023-04-12T22:13:57.810Z,2.58
2023-04-12T22:16:24.633Z,2.20
2023-04-12T22:18:52.758Z,1.50
2023-04-12T22:21:19.751Z,1.70
2023-04-12T22:23:46.780Z,1.98
2023-04-12T22:26:13.636Z,1.88
2023-04-12T22:28:42.228Z,1.50
2023-04-12T22:31:14.684Z,2.17
2023-04-12T22:33:42.559Z,2.63
2023-04-12T22:36:10.168Z,2.15
2023-04-12T22:38:37.932Z,3.55
2023-04-12T22:41:04.941Z,2.10
2023-04-12T22:43:41.458Z,2.03
2023-04-12T22:46:16.134Z,3.63
2023-04-12T22:48:47.641Z,2.20
2023-04-12T22:51:14.631Z,2.65
2023-04-12T22:53:41.357Z,3.13
2023-04-12T22:56:08.829Z,2.30
2023-04-12T22:58:40.232Z,2.20
2023-04-12T23:01:07.432Z,1.80
2023-04-12T23:03:34.313Z,1.85
2023-04-12T23:06:00.953Z,1.83
2023-04-12T23:08:29.028Z,1.67
2023-04-12T23:11:01.900Z,2.53
2023-04-12T23:13:29.782Z,1.92
2023-04-12T23:15:56.870Z,2.35
2023-04-12T23:18:25.632Z,2.83
2023-04-12T23:20:53.879Z,2.10
2023-04-12T23:23:24.606Z,2.40
2023-04-12T23:25:52.291Z,1.90
2023-04-12T23:28:19.632Z,3.35
2023-04-12T23:30:49.062Z,1.85
2023-04-12T23:33:18.207Z,2.42
2023-04-12T23:35:46.870Z,2.20
2023-04-12T23:38:23.235Z,2.50
2023-04-12T23:40:56.585Z,1.85
2023-04-12T23:43:24.716Z,2.15
2023-04-12T23:45:52.464Z,3.20
2023-04-12T23:48:19.274Z,2.17
2023-04-12T23:50:46.228Z,2.50
2023-04-12T23:53:13.148Z,3.15
2023-04-12T23:55:41.980Z,2.20
2023-04-12T23:58:09.196Z,1.80
